createdAt,value
2016-07-03T00:00:30.657Z,64.14
2016-07-03T00:01:30.676Z,63.47
2016-07-03T00:02:30.697Z,63.85
2016-07-03T00:03:30.703Z,63.66
2016-07-03T00:04:30.704Z,63.76
2016-07-03T00:05:30.724Z,63.85
2016-07-03T00:06:30.726Z,63.95
2016-07-03T00:07:30.722Z,63.95
2016-07-03T00:08:30.727Z,63.95
2016-07-03T00:09:30.751Z,63.85
2016-07-03T00:10:30.757Z,63.66
2016-07-03T00:11:30.779Z,64.14
2016-07-03T00:12:30.778Z,63.66
2016-07-03T00:13:30.778Z,63.95
2016-07-03T00:14:30.810Z,63.95
2016-07-03T00:15:30.791Z,63.85
2016-07-03T00:16:30.810Z,63.85
2016-07-03T00:17:30.827Z,64.05
2016-07-03T00:18:30.829Z,63.95
2016-07-03T00:19:30.822Z,63.66
2016-07-03T00:20:30.842Z,64.14
2016-07-03T00:21:30.864Z,63.85
2016-07-03T00:22:30.868Z,63.95
2016-07-03T00:23:30.874Z,63.76
2016-07-03T00:24:30.893Z,63.76
2016-07-03T00:25:30.874Z,63.76
2016-07-03T00:26:30.893Z,63.95
2016-07-03T00:27:30.890Z,63.82
2016-07-03T00:28:30.906Z,63.56
2016-07-03T00:29:30.947Z,64.01
2016-07-03T00:30:30.939Z,64.14
2016-07-03T00:31:30.950Z,63.63
2016-07-03T00:32:30.956Z,63.92
2016-07-03T00:33:30.968Z,63.76
2016-07-03T00:34:30.979Z,63.95
2016-07-03T00:35:30.976Z,64.14
2016-07-03T00:36:30.988Z,63.85
2016-07-03T00:37:30.998Z,64.01
2016-07-03T00:38:31.003Z,63.73
2016-07-03T00:39:31.025Z,63.95
2016-07-03T00:40:31.021Z,64.11
2016-07-03T00:41:31.033Z,63.95
2016-07-03T00:42:31.064Z,63.56
2016-07-03T00:43:31.051Z,63.95
2016-07-03T00:44:31.090Z,63.53
2016-07-03T00:45:31.075Z,63.92
2016-07-03T00:46:31.075Z,63.82
2016-07-03T00:47:31.115Z,63.63
2016-07-03T00:48:31.103Z,64.01
2016-07-03T00:49:31.108Z,63.76
2016-07-03T00:50:31.123Z,63.85
2016-07-03T00:51:31.126Z,63.66
2016-07-03T00:52:31.139Z,63.76
2016-07-03T00:53:31.136Z,63.82
2016-07-03T00:54:31.149Z,63.92
2016-07-03T00:55:31.197Z,64.14
2016-07-03T00:56:31.160Z,63.82
2016-07-03T00:57:31.167Z,63.76
2016-07-03T00:58:31.176Z,63.56
2016-07-03T00:59:31.200Z,63.66
2016-07-03T01:00:31.193Z,64.14
2016-07-03T01:01:31.201Z,63.92
2016-07-03T01:02:31.219Z,63.53
2016-07-03T01:03:31.227Z,63.82
2016-07-03T01:04:31.233Z,63.95
2016-07-03T01:05:31.239Z,64.14
2016-07-03T01:06:31.260Z,63.85
2016-07-03T01:07:31.262Z,63.95
2016-07-03T01:08:31.282Z,63.47
2016-07-03T01:09:31.296Z,63.92
2016-07-03T01:10:31.282Z,63.73
2016-07-03T01:11:31.309Z,63.66
2016-07-03T01:12:31.316Z,64.11
2016-07-03T01:13:31.313Z,64.11
2016-07-03T01:14:31.313Z,63.92
2016-07-03T01:15:31.314Z,63.76
2016-07-03T01:16:31.349Z,63.73
2016-07-03T01:17:31.365Z,63.63
2016-07-03T01:18:31.355Z,63.92
2016-07-03T01:19:31.360Z,63.92
2016-07-03T01:20:31.374Z,63.63
2016-07-03T01:21:31.403Z,63.73
2016-07-03T01:22:31.409Z,63.92
2016-07-03T01:23:31.418Z,63.82
2016-07-03T01:24:31.435Z,63.73
2016-07-03T01:25:31.420Z,63.63
2016-07-03T01:26:31.434Z,63.92
2016-07-03T01:27:31.447Z,63.82
2016-07-03T01:28:31.440Z,63.73
2016-07-03T01:29:31.451Z,63.92
2016-07-03T01:30:31.471Z,63.73
2016-07-03T01:31:31.463Z,63.63
2016-07-03T01:32:31.481Z,63.73
2016-07-03T01:33:31.485Z,63.82
2016-07-03T01:34:31.512Z,63.73
2016-07-03T01:35:31.499Z,63.92
2016-07-03T01:36:31.509Z,63.82
2016-07-03T01:37:31.525Z,63.73
2016-07-03T01:38:31.542Z,63.92
2016-07-03T01:39:31.543Z,63.92
2016-07-03T01:40:31.554Z,64.01
2016-07-03T01:41:31.555Z,63.73
2016-07-03T01:42:31.579Z,63.92
2016-07-03T01:43:31.584Z,63.92
2016-07-03T01:44:31.578Z,63.82
2016-07-03T01:45:31.603Z,64.11
2016-07-03T01:46:31.604Z,63.92
2016-07-03T01:47:31.621Z,64.01
2016-07-03T01:48:31.633Z,63.92
2016-07-03T01:49:31.632Z,63.92
2016-07-03T01:50:31.647Z,63.92
2016-07-03T01:51:31.650Z,63.92
2016-07-03T01:52:31.645Z,63.73
2016-07-03T01:53:31.677Z,63.92
2016-07-03T01:54:31.665Z,63.73
2016-07-03T01:55:31.681Z,63.73
2016-07-03T01:56:31.680Z,64.01
2016-07-03T01:57:31.697Z,63.82
2016-07-03T01:58:31.703Z,63.92
2016-07-03T01:59:31.712Z,63.92
2016-07-03T02:00:31.735Z,63.92
2016-07-03T02:01:31.734Z,63.92
2016-07-03T02:02:31.761Z,63.92
2016-07-03T02:03:31.769Z,63.73
2016-07-03T02:04:31.762Z,64.01
2016-07-03T02:05:31.783Z,63.92
2016-07-03T02:06:31.792Z,63.73
2016-07-03T02:07:31.795Z,63.92
2016-07-03T02:08:31.795Z,63.92
2016-07-03T02:09:31.804Z,63.92
2016-07-03T02:10:31.803Z,63.82
2016-07-03T02:11:31.828Z,63.92
2016-07-03T02:12:31.826Z,64.01
2016-07-03T02:13:31.833Z,63.92
2016-07-03T02:14:31.862Z,64.01
2016-07-03T02:15:31.862Z,63.82
2016-07-03T02:16:31.879Z,63.92
2016-07-03T02:17:31.889Z,63.92
2016-07-03T02:18:31.890Z,63.92
2016-07-03T02:19:31.897Z,63.92
2016-07-03T02:20:31.890Z,63.73
2016-07-03T02:21:31.912Z,63.82
2016-07-03T02:22:31.974Z,63.82
2016-07-03T02:23:31.920Z,63.92
2016-07-03T02:24:32.532Z,63.92
2016-07-03T02:25:31.937Z,63.92
2016-07-03T02:26:31.974Z,64.01
2016-07-03T02:27:31.975Z,64.01
2016-07-03T02:28:31.981Z,63.92
2016-07-03T02:29:31.996Z,63.92
2016-07-03T02:30:31.987Z,64.01
2016-07-03T02:31:31.999Z,63.92
2016-07-03T02:32:32.002Z,64.01
2016-07-03T02:33:32.030Z,63.92
2016-07-03T02:34:32.025Z,64.01
2016-07-03T02:35:32.049Z,63.92
2016-07-03T02:36:32.042Z,63.92
2016-07-03T02:37:32.062Z,63.82
2016-07-03T02:38:32.059Z,63.82
2016-07-03T02:39:32.076Z,63.82
2016-07-03T02:40:32.089Z,64.11
2016-07-03T02:41:32.090Z,63.92
2016-07-03T02:42:32.089Z,63.82
2016-07-03T02:43:32.098Z,63.82
2016-07-03T02:44:32.121Z,64.01
2016-07-03T02:45:32.127Z,64.01
2016-07-03T02:46:32.147Z,63.92
2016-07-03T02:47:32.139Z,63.92
2016-07-03T02:48:32.142Z,64.01
2016-07-03T02:49:32.166Z,63.82
2016-07-03T02:50:32.160Z,64.01
2016-07-03T02:51:32.186Z,63.92
2016-07-03T02:52:32.195Z,64.01
2016-07-03T02:53:32.201Z,64.01
2016-07-03T02:54:32.197Z,64.01
2016-07-03T02:55:32.226Z,63.82
2016-07-03T02:56:32.226Z,63.92
2016-07-03T02:57:32.219Z,64.01
2016-07-03T02:58:32.230Z,64.01
2016-07-03T02:59:32.256Z,63.82
2016-07-03T03:00:32.266Z,63.92
2016-07-03T03:01:32.261Z,64.01
2016-07-03T03:02:32.271Z,64.01
2016-07-03T03:03:32.285Z,63.92
2016-07-03T03:04:32.278Z,64.01
2016-07-03T03:05:32.287Z,63.92
2016-07-03T03:06:32.309Z,63.92
2016-07-03T03:07:32.308Z,63.92
2016-07-03T03:08:32.333Z,63.92
2016-07-03T03:09:32.331Z,63.82
2016-07-03T03:10:32.335Z,63.92
2016-07-03T03:11:32.340Z,63.92
2016-07-03T03:12:32.381Z,63.92
2016-07-03T03:13:32.362Z,63.92
2016-07-03T03:14:32.390Z,63.92
2016-07-03T03:15:32.398Z,63.82
2016-07-03T03:16:32.392Z,63.82
2016-07-03T03:17:32.402Z,63.82
2016-07-03T03:18:32.404Z,63.92
2016-07-03T03:19:32.416Z,63.82
2016-07-03T03:20:32.418Z,64.01
2016-07-03T03:21:32.431Z,63.92
2016-07-03T03:22:32.489Z,63.73
2016-07-03T03:23:32.453Z,63.82
2016-07-03T03:24:32.473Z,63.92
2016-07-03T03:25:32.480Z,63.92
2016-07-03T03:26:32.471Z,63.82
2016-07-03T03:27:32.492Z,63.92
2016-07-03T03:28:32.516Z,63.73
2016-07-03T03:29:32.517Z,63.92
2016-07-03T03:30:32.519Z,64.01
2016-07-03T03:31:32.527Z,63.92
2016-07-03T03:32:32.533Z,63.92
2016-07-03T03:33:32.555Z,63.92
2016-07-03T03:34:32.541Z,63.92
2016-07-03T03:35:32.554Z,63.92
2016-07-03T03:36:32.566Z,63.92
2016-07-03T03:37:32.577Z,63.82
2016-07-03T03:38:32.580Z,63.92
2016-07-03T03:39:32.589Z,64.01
2016-07-03T03:40:32.589Z,63.82
2016-07-03T03:41:32.611Z,63.92
2016-07-03T03:42:32.604Z,63.92
2016-07-03T03:43:32.633Z,63.82
2016-07-03T03:44:32.616Z,63.92
2016-07-03T03:45:32.649Z,64.01
2016-07-03T03:46:32.659Z,63.92
2016-07-03T03:47:32.680Z,64.01
2016-07-03T03:48:32.681Z,63.82
2016-07-03T03:49:32.689Z,64.01
2016-07-03T03:50:32.693Z,63.82
2016-07-03T03:51:32.694Z,63.82
2016-07-03T03:52:32.712Z,63.92
2016-07-03T03:53:32.701Z,63.92
2016-07-03T03:54:32.737Z,63.92
2016-07-03T03:55:32.723Z,63.82
2016-07-03T03:56:32.745Z,63.73
2016-07-03T03:57:32.755Z,63.82
2016-07-03T03:58:32.771Z,63.63
2016-07-03T03:59:32.766Z,63.73
2016-07-03T04:00:32.773Z,63.73
2016-07-03T04:01:32.788Z,63.63
2016-07-03T04:02:32.788Z,63.92
2016-07-03T04:03:32.792Z,63.82
2016-07-03T04:04:32.800Z,64.01
2016-07-03T04:05:32.825Z,63.73
2016-07-03T04:06:32.837Z,63.82
2016-07-03T04:07:32.839Z,63.63
2016-07-03T04:08:32.842Z,63.43
2016-07-03T04:09:32.841Z,63.73
2016-07-03T04:10:32.861Z,63.53
2016-07-03T04:11:32.871Z,63.53
2016-07-03T04:12:32.881Z,63.53
2016-07-03T04:13:32.889Z,63.43
2016-07-03T04:14:32.895Z,63.63
2016-07-03T04:15:32.899Z,63.73
2016-07-03T04:16:32.915Z,63.63
2016-07-03T04:17:32.913Z,63.53
2016-07-03T04:18:32.917Z,63.73
2016-07-03T04:19:32.944Z,63.82
2016-07-03T04:20:33.556Z,63.82
2016-07-03T04:21:32.957Z,63.82
2016-07-03T04:22:32.953Z,63.82
2016-07-03T04:23:32.964Z,63.73
2016-07-03T04:24:32.979Z,63.92
2016-07-03T04:25:33.013Z,63.73
2016-07-03T04:26:32.984Z,63.82
2016-07-03T04:27:33.024Z,63.73
2016-07-03T04:28:33.016Z,63.73
2016-07-03T04:29:33.039Z,63.63
2016-07-03T04:30:33.026Z,63.92
2016-07-03T04:31:33.046Z,63.92
2016-07-03T04:32:33.043Z,63.92
2016-07-03T04:33:33.054Z,63.43
2016-07-03T04:34:33.077Z,63.43
2016-07-03T04:35:33.068Z,63.73
2016-07-03T04:36:33.098Z,63.43
2016-07-03T04:37:33.102Z,63.34
2016-07-03T04:38:33.103Z,63.05
2016-07-03T04:39:33.109Z,63.43
2016-07-03T04:40:33.134Z,63.24
2016-07-03T04:41:33.146Z,63.24
2016-07-03T04:42:33.155Z,63.34
2016-07-03T04:43:33.158Z,63.34
2016-07-03T04:44:33.176Z,63.43
2016-07-03T04:45:33.185Z,63.43
2016-07-03T04:46:33.169Z,63.15
2016-07-03T04:47:33.188Z,63.34
2016-07-03T04:48:33.201Z,63.05
2016-07-03T04:49:33.202Z,63.34
2016-07-03T04:50:33.204Z,63.24
2016-07-03T04:51:33.233Z,63.24
2016-07-03T04:52:33.226Z,63.24
2016-07-03T04:53:33.249Z,63.24
2016-07-03T04:54:33.239Z,63.24
2016-07-03T04:55:33.265Z,63.28
2016-07-03T04:56:33.260Z,63.37
2016-07-03T04:57:33.265Z,63.24
2016-07-03T04:58:33.277Z,63.15
2016-07-03T04:59:33.294Z,63.28
2016-07-03T05:00:33.297Z,63.28
2016-07-03T05:01:33.309Z,63.24
2016-07-03T05:02:33.304Z,63.24
2016-07-03T05:03:33.328Z,63.43
2016-07-03T05:04:33.335Z,63.34
2016-07-03T05:05:33.336Z,63.24
2016-07-03T05:06:33.352Z,63.24
2016-07-03T05:07:33.349Z,63.24
2016-07-03T05:08:33.377Z,63.24
2016-07-03T05:09:33.364Z,63.24
2016-07-03T05:10:33.386Z,63.24
2016-07-03T05:11:33.398Z,63.34
2016-07-03T05:12:33.392Z,63.43
2016-07-03T05:13:33.403Z,63.24
2016-07-03T05:14:33.413Z,63.28
2016-07-03T05:15:33.410Z,63.28
2016-07-03T05:16:33.438Z,63.28
2016-07-03T05:17:33.442Z,63.24
2016-07-03T05:18:33.459Z,62.76
2016-07-03T05:19:33.472Z,62.79
2016-07-03T05:20:33.480Z,63.34
2016-07-03T05:21:33.476Z,62.76
2016-07-03T05:22:33.527Z,63.08
2016-07-03T05:23:33.505Z,63.05
2016-07-03T05:24:33.513Z,62.95
2016-07-03T05:25:33.541Z,63.05
2016-07-03T05:26:33.529Z,63.05
2016-07-03T05:27:33.525Z,62.95
2016-07-03T05:28:33.547Z,62.95
2016-07-03T05:29:33.560Z,62.86
2016-07-03T05:30:33.554Z,63.15
2016-07-03T05:31:33.565Z,62.95
2016-07-03T05:32:33.565Z,63.08
2016-07-03T05:33:33.592Z,63.05
2016-07-03T05:34:33.619Z,63.15
2016-07-03T05:35:33.608Z,63.08
2016-07-03T05:36:33.617Z,62.95
2016-07-03T05:37:33.625Z,63.05
2016-07-03T05:38:33.625Z,63.15
2016-07-03T05:39:33.645Z,62.86
2016-07-03T05:40:33.648Z,62.89
2016-07-03T05:41:33.672Z,62.66
2016-07-03T05:42:33.675Z,62.66
2016-07-03T05:43:33.675Z,62.7
2016-07-03T05:44:33.681Z,62.7
2016-07-03T05:45:33.696Z,62.79
2016-07-03T05:46:33.704Z,62.7
2016-07-03T05:47:33.701Z,62.86
2016-07-03T05:48:33.739Z,62.7
2016-07-03T05:49:33.725Z,62.7
2016-07-03T05:50:33.735Z,62.89
2016-07-03T05:51:33.754Z,62.89
2016-07-03T05:52:33.755Z,62.79
2016-07-03T05:53:33.752Z,62.89
2016-07-03T05:54:33.788Z,62.89
2016-07-03T05:55:33.776Z,62.7
2016-07-03T05:56:33.804Z,62.79
2016-07-03T05:57:33.811Z,62.7
2016-07-03T05:58:33.816Z,62.89
2016-07-03T05:59:33.819Z,62.79
2016-07-03T06:00:33.840Z,62.89
2016-07-03T06:01:33.848Z,62.7
2016-07-03T06:02:33.866Z,62.6
2016-07-03T06:03:33.851Z,62.79
2016-07-03T06:04:33.863Z,62.98
2016-07-03T06:05:33.919Z,62.79
2016-07-03T06:06:33.894Z,62.98
2016-07-03T06:07:33.890Z,62.5
2016-07-03T06:08:33.905Z,62.6
2016-07-03T06:09:33.912Z,62.79
2016-07-03T06:10:33.917Z,62.79
2016-07-03T06:11:33.941Z,62.79
2016-07-03T06:12:33.943Z,62.89
2016-07-03T06:13:33.938Z,62.7
2016-07-03T06:14:33.967Z,62.79
2016-07-03T06:15:33.956Z,62.89
2016-07-03T06:16:33.961Z,62.79
2016-07-03T06:17:33.992Z,62.89
2016-07-03T06:18:33.991Z,62.79
2016-07-03T06:19:33.996Z,62.79
2016-07-03T06:20:34.010Z,62.7
2016-07-03T06:21:34.008Z,63.08
2016-07-03T06:22:34.036Z,62.7
2016-07-03T06:23:34.049Z,62.98
2016-07-03T06:24:34.034Z,62.79
2016-07-03T06:25:34.055Z,62.89
2016-07-03T06:26:34.061Z,62.98
2016-07-03T06:27:34.079Z,62.89
2016-07-03T06:28:34.073Z,62.89
2016-07-03T06:29:34.097Z,62.89
2016-07-03T06:30:34.103Z,63.08
2016-07-03T06:31:34.103Z,62.79
2016-07-03T06:32:34.116Z,62.89
2016-07-03T06:33:34.131Z,63.08
2016-07-03T06:34:34.123Z,63.08
2016-07-03T06:35:34.141Z,62.79
2016-07-03T06:36:34.156Z,63.08
2016-07-03T06:37:34.174Z,62.89
2016-07-03T06:38:34.163Z,63.08
2016-07-03T06:39:34.183Z,62.89
2016-07-03T06:40:34.193Z,62.98
2016-07-03T06:41:34.199Z,63.08
2016-07-03T06:42:34.214Z,63.28
2016-07-03T06:43:34.221Z,62.79
2016-07-03T06:44:34.214Z,63.18
2016-07-03T06:45:34.223Z,62.6
2016-07-03T06:46:34.247Z,63.18
2016-07-03T06:47:34.253Z,62.7
2016-07-03T06:48:34.246Z,62.89
2016-07-03T06:49:34.269Z,62.89
2016-07-03T06:50:34.281Z,62.5
2016-07-03T06:51:34.273Z,62.6
2016-07-03T06:52:34.282Z,63.18
2016-07-03T06:53:34.308Z,62.79
2016-07-03T06:54:34.333Z,62.79
2016-07-03T06:55:34.313Z,62.6
2016-07-03T06:56:34.326Z,62.6
2016-07-03T06:57:34.343Z,62.7
2016-07-03T06:58:34.336Z,62.6
2016-07-03T06:59:34.351Z,62.6
2016-07-03T07:00:34.359Z,62.7
2016-07-03T07:01:34.375Z,62.6
2016-07-03T07:02:34.370Z,62.89
2016-07-03T07:03:34.393Z,62.7
2016-07-03T07:04:34.416Z,62.6
2016-07-03T07:05:34.419Z,62.7
2016-07-03T07:06:34.410Z,62.79
2016-07-03T07:07:34.440Z,62.7
2016-07-03T07:08:34.430Z,62.7
2016-07-03T07:09:34.441Z,62.79
2016-07-03T07:10:34.440Z,62.89
2016-07-03T07:11:34.471Z,62.89
2016-07-03T07:12:34.474Z,62.89
2016-07-03T07:13:34.479Z,62.98
2016-07-03T07:14:34.499Z,62.79
2016-07-03T07:15:34.500Z,62.98
2016-07-03T07:16:34.512Z,62.4
2016-07-03T07:17:34.524Z,62.5
2016-07-03T07:18:34.516Z,62.24
2016-07-03T07:19:34.542Z,62.5
2016-07-03T07:20:34.548Z,62.34
2016-07-03T07:21:34.555Z,62.34
2016-07-03T07:22:34.551Z,62.31
2016-07-03T07:23:34.585Z,62.02
2016-07-03T07:24:34.585Z,62.4
2016-07-03T07:25:34.597Z,62.44
2016-07-03T07:26:34.585Z,62.5
2016-07-03T07:27:35.233Z,62.24
2016-07-03T07:28:35.205Z,62.31
2016-07-03T07:29:34.610Z,62.44
2016-07-03T07:30:35.226Z,62.44
2016-07-03T07:31:34.642Z,62.34
2016-07-03T07:32:34.639Z,62.44
2016-07-03T07:33:34.652Z,62.31
2016-07-03T07:34:34.672Z,62.53
2016-07-03T07:35:34.688Z,62.34
2016-07-03T07:36:34.674Z,62.15
2016-07-03T07:37:34.700Z,62.4
2016-07-03T07:38:34.684Z,62.34
2016-07-03T07:39:34.699Z,62.15
2016-07-03T07:40:34.711Z,62.34
2016-07-03T07:41:35.318Z,62.15
2016-07-03T07:42:34.742Z,62.05
2016-07-03T07:43:34.760Z,62.24
2016-07-03T07:44:34.750Z,61.95
2016-07-03T07:45:34.778Z,62.05
2016-07-03T07:46:34.764Z,62.15
2016-07-03T07:47:34.793Z,62.05
2016-07-03T07:48:34.800Z,62.05
2016-07-03T07:49:34.817Z,61.76
2016-07-03T07:50:34.827Z,61.95
2016-07-03T07:51:34.817Z,62.24
2016-07-03T07:52:34.823Z,61.86
2016-07-03T07:53:34.850Z,62.05
2016-07-03T07:54:34.865Z,61.76
2016-07-03T07:55:34.863Z,62.15
2016-07-03T07:56:34.867Z,61.76
2016-07-03T07:57:34.872Z,61.86
2016-07-03T07:58:34.878Z,61.95
2016-07-03T07:59:34.881Z,61.66
2016-07-03T08:00:34.905Z,61.86
2016-07-03T08:01:34.914Z,61.57
2016-07-03T08:02:34.932Z,61.76
2016-07-03T08:03:34.931Z,61.66
2016-07-03T08:04:34.936Z,61.76
2016-07-03T08:05:34.945Z,61.47
2016-07-03T08:06:34.961Z,61.57
2016-07-03T08:07:34.970Z,62.05
2016-07-03T08:08:34.981Z,61.95
2016-07-03T08:09:34.989Z,61.76
2016-07-03T08:10:34.996Z,61.95
2016-07-03T08:11:34.989Z,62.05
2016-07-03T08:12:35.020Z,61.95
2016-07-03T08:13:35.008Z,61.6
2016-07-03T08:14:35.030Z,61.95
2016-07-03T08:15:35.042Z,61.98
2016-07-03T08:16:35.048Z,61.95
2016-07-03T08:17:35.053Z,61.86
2016-07-03T08:18:35.058Z,61.95
2016-07-03T08:19:35.086Z,61.79
2016-07-03T08:20:35.087Z,61.66
2016-07-03T08:21:35.093Z,61.89
2016-07-03T08:22:35.099Z,61.86
2016-07-03T08:23:35.322Z,61.57
2016-07-03T08:24:35.133Z,61.37
2016-07-03T08:25:35.121Z,61.66
2016-07-03T08:26:35.137Z,61.69
2016-07-03T08:27:35.150Z,61.89
2016-07-03T08:28:35.165Z,61.5
2016-07-03T08:29:35.179Z,61.66
2016-07-03T08:30:35.180Z,61.76
2016-07-03T08:31:35.191Z,61.69
2016-07-03T08:32:35.200Z,61.66
2016-07-03T08:33:35.212Z,61.57
2016-07-03T08:34:35.229Z,61.76
2016-07-03T08:35:35.223Z,61.66
2016-07-03T08:36:35.241Z,61.6
2016-07-03T08:37:35.250Z,61.47
2016-07-03T08:38:35.261Z,61.27
2016-07-03T08:39:35.267Z,61.57
2016-07-03T08:40:35.257Z,61.5
2016-07-03T08:41:35.286Z,61.5
2016-07-03T08:42:35.298Z,61.37
2016-07-03T08:43:35.311Z,61.5
2016-07-03T08:44:35.302Z,61.4
2016-07-03T08:45:35.930Z,61.3
2016-07-03T08:46:35.309Z,61.21
2016-07-03T08:47:35.326Z,61.4
2016-07-03T08:48:35.339Z,61.5
2016-07-03T08:49:35.354Z,61.3
2016-07-03T08:50:35.354Z,61.4
2016-07-03T08:51:35.988Z,61.4
2016-07-03T08:52:35.365Z,61.4
2016-07-03T08:53:35.402Z,61.4
2016-07-03T08:54:35.401Z,61.5
2016-07-03T08:55:35.404Z,61.5
2016-07-03T08:56:35.411Z,61.4
2016-07-03T08:57:35.405Z,61.5
2016-07-03T08:58:35.414Z,61.5
2016-07-03T08:59:35.445Z,61.3
2016-07-03T09:00:35.434Z,61.3
2016-07-03T09:01:36.070Z,61.6
2016-07-03T09:02:35.478Z,61.6
2016-07-03T09:03:36.088Z,61.6
2016-07-03T09:04:35.486Z,61.69
2016-07-03T09:05:35.484Z,61.3
2016-07-03T09:06:35.507Z,61.5
2016-07-03T09:07:35.524Z,61.6
2016-07-03T09:08:35.520Z,61.21
2016-07-03T09:09:35.519Z,61.3
2016-07-03T09:10:35.552Z,61.02
2016-07-03T09:11:35.555Z,61.21
2016-07-03T09:12:35.556Z,61.21
2016-07-03T09:13:35.550Z,61.21
2016-07-03T09:14:35.569Z,61.11
2016-07-03T09:15:35.599Z,61.11
2016-07-03T09:16:36.195Z,61.21
2016-07-03T09:17:36.223Z,61.21
2016-07-03T09:18:35.602Z,61.3
2016-07-03T09:19:35.631Z,61.21
2016-07-03T09:20:35.621Z,61.11
2016-07-03T09:21:35.655Z,60.92
2016-07-03T09:22:35.654Z,61.02
2016-07-03T09:23:35.665Z,61.02
2016-07-03T09:24:35.676Z,60.82
2016-07-03T09:25:35.666Z,60.72
2016-07-03T09:26:35.684Z,60.82
2016-07-03T09:27:35.694Z,60.82
2016-07-03T09:28:35.720Z,60.63
2016-07-03T09:29:35.705Z,60.92
2016-07-03T09:30:35.713Z,60.72
2016-07-03T09:31:35.746Z,61.11
2016-07-03T09:32:35.739Z,61.21
2016-07-03T09:33:35.763Z,61.3
2016-07-03T09:34:35.770Z,61.21
2016-07-03T09:35:35.771Z,61.02
2016-07-03T09:36:35.783Z,61.02
2016-07-03T09:37:35.801Z,61.21
2016-07-03T09:38:35.805Z,61.11
2016-07-03T09:39:35.809Z,61.02
2016-07-03T09:40:35.826Z,61.3
2016-07-03T09:41:35.843Z,61.21
2016-07-03T09:42:35.844Z,61.21
2016-07-03T09:43:35.844Z,61.21
2016-07-03T09:44:35.840Z,61.21
2016-07-03T09:45:35.856Z,61.6
2016-07-03T09:46:35.891Z,61.11
2016-07-03T09:47:35.881Z,61.21
2016-07-03T09:48:35.882Z,61.21
2016-07-03T09:49:35.919Z,61.11
2016-07-03T09:50:35.900Z,61.21
2016-07-03T09:51:35.921Z,61.21
2016-07-03T09:52:35.930Z,61.21
2016-07-03T09:53:35.924Z,61.11
2016-07-03T09:54:35.944Z,61.11
2016-07-03T09:55:35.956Z,61.21
2016-07-03T09:56:35.952Z,61.21
2016-07-03T09:57:35.979Z,61.21
2016-07-03T09:58:35.987Z,61.11
2016-07-03T09:59:36.000Z,61.3
2016-07-03T10:00:36.003Z,61.11
2016-07-03T10:01:36.008Z,61.02
2016-07-03T10:02:36.013Z,61.02
2016-07-03T10:03:36.019Z,61.11
2016-07-03T10:04:36.042Z,60.92
2016-07-03T10:05:36.043Z,60.57
2016-07-03T10:06:36.060Z,60.53
2016-07-03T10:07:36.076Z,60.82
2016-07-03T10:08:36.060Z,60.85
2016-07-03T10:09:36.074Z,60.85
2016-07-03T10:10:36.084Z,60.85
2016-07-03T10:11:36.117Z,60.66
2016-07-03T10:12:36.092Z,60.75
2016-07-03T10:13:36.110Z,60.47
2016-07-03T10:14:36.130Z,60.75
2016-07-03T10:15:36.121Z,60.66
2016-07-03T10:16:36.132Z,60.66
2016-07-03T10:17:36.162Z,60.57
2016-07-03T10:18:36.176Z,60.75
2016-07-03T10:19:36.172Z,60.85
2016-07-03T10:20:36.173Z,60.75
2016-07-03T10:21:36.190Z,60.66
2016-07-03T10:22:36.213Z,60.63
2016-07-03T10:23:36.218Z,60.57
2016-07-03T10:24:36.210Z,60.47
2016-07-03T10:25:36.220Z,60.66
2016-07-03T10:26:36.231Z,60.37
2016-07-03T10:27:36.234Z,60.57
2016-07-03T10:28:36.264Z,60.47
2016-07-03T10:29:36.265Z,60.75
2016-07-03T10:30:36.273Z,60.57
2016-07-03T10:31:36.272Z,60.57
2016-07-03T10:32:36.294Z,60.47
2016-07-03T10:33:36.304Z,60.57
2016-07-03T10:34:36.317Z,60.57
2016-07-03T10:35:36.310Z,60.57
2016-07-03T10:36:36.319Z,60.57
2016-07-03T10:37:36.347Z,60.66
2016-07-03T10:38:36.360Z,60.27
2016-07-03T10:39:36.346Z,59.98
2016-07-03T10:40:36.353Z,60.08
2016-07-03T10:41:36.376Z,60.47
2016-07-03T10:42:36.371Z,60.27
2016-07-03T10:43:36.397Z,59.98
2016-07-03T10:44:36.421Z,60.08
2016-07-03T10:45:36.396Z,60.37
2016-07-03T10:46:36.405Z,60.08
2016-07-03T10:47:36.428Z,60.08
2016-07-03T10:48:36.447Z,60.27
2016-07-03T10:49:36.442Z,60.17
2016-07-03T10:50:36.449Z,60.27
2016-07-03T10:51:36.470Z,60.47
2016-07-03T10:52:36.459Z,60.17
2016-07-03T10:53:36.475Z,59.89
2016-07-03T10:54:36.495Z,60.27
2016-07-03T10:55:36.494Z,59.98
2016-07-03T10:56:36.495Z,59.82
2016-07-03T10:57:36.524Z,59.91
2016-07-03T10:58:36.531Z,60.5
2016-07-03T10:59:36.549Z,60.27
2016-07-03T11:00:36.540Z,60.37
2016-07-03T11:01:36.553Z,60.21
2016-07-03T11:02:36.558Z,59.89
2016-07-03T11:03:36.575Z,60.37
2016-07-03T11:04:36.577Z,60.08
2016-07-03T11:05:36.595Z,59.98
2016-07-03T11:06:36.604Z,60.21
2016-07-03T11:07:36.603Z,60.37
2016-07-03T11:08:36.616Z,59.98
2016-07-03T11:09:36.639Z,60.47
2016-07-03T11:10:36.633Z,60.47
2016-07-03T11:11:36.634Z,60.66
2016-07-03T11:12:36.660Z,60.08
2016-07-03T11:13:36.659Z,60.47
2016-07-03T11:14:36.685Z,60.47
2016-07-03T11:15:36.674Z,60.17
2016-07-03T11:16:36.685Z,60.37
2016-07-03T11:17:36.717Z,59.89
2016-07-03T11:18:36.709Z,60.21
2016-07-03T11:19:36.718Z,60.57
2016-07-03T11:20:36.727Z,60.47
2016-07-03T11:21:36.740Z,60.37
2016-07-03T11:22:36.740Z,60.57
2016-07-03T11:23:36.752Z,60.37
2016-07-03T11:24:36.768Z,60.17
2016-07-03T11:25:36.774Z,60.37
2016-07-03T11:26:36.794Z,60.57
2016-07-03T11:27:36.802Z,60.57
2016-07-03T11:28:36.817Z,60.47
2016-07-03T11:29:36.806Z,60.27
2016-07-03T11:30:36.837Z,60.27
2016-07-03T11:31:36.830Z,60.27
2016-07-03T11:32:36.856Z,60.27
2016-07-03T11:33:36.853Z,60.27
2016-07-03T11:34:36.860Z,60.08
2016-07-03T11:35:36.867Z,60.57
2016-07-03T11:36:36.888Z,60.57
2016-07-03T11:37:36.891Z,60.57
2016-07-03T11:38:36.915Z,60.47
2016-07-03T11:39:36.901Z,60.47
2016-07-03T11:40:36.917Z,60.08
2016-07-03T11:41:36.951Z,60.17
2016-07-03T11:42:36.929Z,60.47
2016-07-03T11:43:36.952Z,60.47
2016-07-03T11:44:36.956Z,60.57
2016-07-03T11:45:36.980Z,60.17
2016-07-03T11:46:36.976Z,60.4
2016-07-03T11:47:36.991Z,60.27
2016-07-03T11:48:36.990Z,59.91
2016-07-03T11:49:37.004Z,60.11
2016-07-03T11:50:37.008Z,60.21
2016-07-03T11:51:37.018Z,60.4
2016-07-03T11:52:37.036Z,60.01
2016-07-03T11:53:37.038Z,60.4
2016-07-03T11:54:37.055Z,60.4
2016-07-03T11:55:37.071Z,60.27
2016-07-03T11:56:37.075Z,60.27
2016-07-03T11:57:37.074Z,60.57
2016-07-03T11:58:37.087Z,60.57
2016-07-03T11:59:37.099Z,60.37
2016-07-03T12:00:37.104Z,60.57
2016-07-03T12:01:37.122Z,60.57
2016-07-03T12:02:37.123Z,60.47
2016-07-03T12:03:37.136Z,60.17
2016-07-03T12:04:37.138Z,60.27
2016-07-03T12:05:37.162Z,60.57
2016-07-03T12:06:37.158Z,60.27
2016-07-03T12:07:37.172Z,60.57
2016-07-03T12:08:37.182Z,60.57
2016-07-03T12:09:37.191Z,60.47
2016-07-03T12:10:37.201Z,60.47
2016-07-03T12:11:37.211Z,60.47
2016-07-03T12:12:37.201Z,60.66
2016-07-03T12:13:37.231Z,60.57
2016-07-03T12:14:37.247Z,60.66
2016-07-03T12:15:37.237Z,60.66
2016-07-03T12:16:37.258Z,60.57
2016-07-03T12:17:37.272Z,60.57
2016-07-03T12:18:37.278Z,60.75
2016-07-03T12:19:37.279Z,60.95
2016-07-03T12:20:37.285Z,60.75
2016-07-03T12:21:37.288Z,60.66
2016-07-03T12:22:37.315Z,60.66
2016-07-03T12:23:37.321Z,60.75
2016-07-03T12:24:37.339Z,60.75
2016-07-03T12:25:37.326Z,60.85
2016-07-03T12:26:37.342Z,60.75
2016-07-03T12:27:37.349Z,60.85
2016-07-03T12:28:37.367Z,60.66
2016-07-03T12:29:37.383Z,60.47
2016-07-03T12:30:37.387Z,60.57
2016-07-03T12:31:37.396Z,60.57
2016-07-03T12:32:37.413Z,60.37
2016-07-03T12:33:37.406Z,60.47
2016-07-03T12:34:37.409Z,60.47
2016-07-03T12:35:37.429Z,60.27
2016-07-03T12:36:37.445Z,60.27
2016-07-03T12:37:37.440Z,60.57
2016-07-03T12:38:37.447Z,60.57
2016-07-03T12:39:37.478Z,60.57
2016-07-03T12:40:37.493Z,60.57
2016-07-03T12:41:37.473Z,60.57
2016-07-03T12:42:37.496Z,60.66
2016-07-03T12:43:37.512Z,60.66
2016-07-03T12:44:37.517Z,60.57
2016-07-03T12:45:37.514Z,60.75
2016-07-03T12:46:37.528Z,60.47
2016-07-03T12:47:37.557Z,60.75
2016-07-03T12:48:37.557Z,60.66
2016-07-03T12:49:37.554Z,60.75
2016-07-03T12:50:37.582Z,60.85
2016-07-03T12:51:37.582Z,60.95
2016-07-03T12:52:37.578Z,60.75
2016-07-03T12:53:37.592Z,60.85
2016-07-03T12:54:37.613Z,60.85
2016-07-03T12:55:37.605Z,60.75